Lime Ridge, Wisconsin
Current Conditions -  °F | °C
As of 12:55 AM on Monday 24 Nov 2014 (Local Time) from KC35 Reporting Station
Moderate Fog Moderate Fog  
Wind Chill: 44°   Ceiling: 500
Heat Index: 44°   Visibility: 0.5mi
Dew Point: 44°   Wind: 3mph
Humidity: 100%   Direction: 290°WNW
Pressure: 29.09"   Gusts: NA
Location:  43.47°N, 90.15°W
Report Text: KC35 240655Z AUTO 29003KT 1/2SM FG OVC005 07/07 A2909 RMK AO2 P0001 T00650065
Loading
Personal Weather Stations






























Interactive Weather Map New forecast layout! Learn more

10-Day Weather Forecast

Advertisements
Track Severe Weather on mobile